Time;durP1;ratioP1;P1;durP2;ratioP2;P2;SDS_P1;SDS_P2;PMS_P1;PMS_P2;Temp;Humidity;BMP_temperature;BMP_pressure;BME280_temperature;BME280_humidity;BME280_pressure;Samples;Min_cycle;Max_cycle;Signal;HPM_P1;HPM_P2
2024/01/12 00:01:05;;;;;;;36.72;16.85;;;;;;;-139.19;100.00;56970.53;5083281;28;20383;-68
2024/01/12 00:03:30;;;;;;;26.33;14.80;;;;;;;-139.19;100.00;56970.53;5081849;28;20032;-68
2024/01/12 00:05:56;;;;;;;24.65;11.52;;;;;;;-139.19;100.00;56970.53;5088491;28;20020;-67
2024/01/12 00:08:22;;;;;;;30.90;14.05;;;;;;;-139.19;100.00;56970.53;5080137;28;20035;-68
2024/01/12 00:10:47;;;;;;;23.52;13.13;;;;;;;-139.19;100.00;56970.53;5081757;28;20055;-68
2024/01/12 00:13:12;;;;;;;23.23;14.32;;;;;;;-139.19;100.00;56970.53;5073684;28;20350;-68
2024/01/12 00:15:38;;;;;;;23.85;12.70;;;;;;;-139.19;100.00;56970.53;5074332;28;20050;-68
2024/01/12 00:18:04;;;;;;;26.70;13.38;;;;;;;-139.19;100.00;56970.53;5078929;28;20040;-68
2024/01/12 00:20:29;;;;;;;21.05;12.18;;;;;;;-139.19;100.00;56970.53;5083896;28;20034;-68
2024/01/12 00:22:56;;;;;;;22.80;12.40;;;;;;;-139.19;100.00;56970.53;5078560;28;20024;-68
2024/01/12 00:25:22;;;;;;;26.88;11.73;;;;;;;-139.19;100.00;56970.53;5081119;28;20484;-68
2024/01/12 00:27:48;;;;;;;23.55;12.73;;;;;;;-139.19;100.00;56970.53;5079485;28;20028;-68
2024/01/12 00:30:13;;;;;;;27.75;12.63;;;;;;;-139.19;100.00;56970.53;5088446;28;20380;-68
2024/01/12 00:32:39;;;;;;;27.35;13.30;;;;;;;-139.19;100.00;56970.53;5073923;28;20119;-68
2024/01/12 00:35:05;;;;;;;25.00;11.88;;;;;;;-139.19;100.00;56970.53;5073313;28;20017;-68
2024/01/12 00:37:30;;;;;;;23.63;11.43;;;;;;;-139.19;100.00;56970.53;5085511;28;20490;-67
2024/01/12 00:39:55;;;;;;;26.20;11.23;;;;;;;-139.19;100.00;56970.53;5073744;28;20028;-68
2024/01/12 00:42:21;;;;;;;30.02;12.95;;;;;;;-139.19;100.00;56970.53;5081448;28;20033;-67
2024/01/12 00:44:46;;;;;;;19.75;11.10;;;;;;;-139.19;100.00;56970.53;5087962;28;20090;-68
2024/01/12 00:47:12;;;;;;;27.13;12.30;;;;;;;-139.19;100.00;56970.53;5072836;28;20047;-68
2024/01/12 00:49:37;;;;;;;19.02;10.93;;;;;;;-139.19;100.00;56970.53;5087118;28;20052;-68
2024/01/12 00:52:03;;;;;;;22.15;10.18;;;;;;;-139.19;100.00;56970.53;5083158;28;20113;-68
2024/01/12 00:54:28;;;;;;;19.50;11.68;;;;;;;-139.19;100.00;56970.53;5093801;28;20036;-68
2024/01/12 00:56:54;;;;;;;19.65;10.65;;;;;;;-139.19;100.00;56970.53;5077672;28;20027;-68
2024/01/12 00:59:19;;;;;;;21.35;12.48;;;;;;;-139.19;100.00;56970.53;5084891;28;20047;-68
2024/01/12 01:01:45;;;;;;;21.38;11.75;;;;;;;-139.19;100.00;56970.53;5093968;28;20038;-67
2024/01/12 01:04:11;;;;;;;20.70;11.70;;;;;;;-139.19;100.00;56970.53;5093657;28;20488;-68
2024/01/12 01:06:36;;;;;;;22.25;10.20;;;;;;;-139.19;100.00;56970.53;5093520;28;20020;-68
2024/01/12 01:09:01;;;;;;;21.77;11.90;;;;;;;-139.19;100.00;56970.53;5093475;28;20073;-68
2024/01/12 01:11:27;;;;;;;21.10;9.93;;;;;;;-139.19;100.00;56970.53;5093561;28;20388;-68
2024/01/12 01:13:52;;;;;;;22.38;11.73;;;;;;;-139.19;100.00;56970.53;5093664;28;20081;-68
2024/01/12 01:16:18;;;;;;;20.58;11.80;;;;;;;-139.19;100.00;56970.53;5081534;28;20039;-68
2024/01/12 01:18:43;;;;;;;21.50;11.23;;;;;;;-139.19;100.00;56970.53;5072070;28;20143;-68
2024/01/12 01:21:09;;;;;;;25.48;12.10;;;;;;;-139.19;100.00;56970.53;5073225;28;20032;-67
2024/01/12 01:23:34;;;;;;;27.08;12.75;;;;;;;-139.19;100.00;56970.53;5073261;28;20025;-68
2024/01/12 01:26:00;;;;;;;19.30;10.40;;;;;;;-139.19;100.00;56970.53;5080223;28;20106;-68
2024/01/12 01:28:25;;;;;;;33.42;13.07;;;;;;;-139.19;100.00;56970.53;5077060;28;20051;-68
2024/01/12 01:30:50;;;;;;;18.58;10.55;;;;;;;-139.19;100.00;56970.53;5078980;28;20108;-68
2024/01/12 01:33:16;;;;;;;20.90;11.60;;;;;;;-139.19;100.00;56970.53;5074517;28;20473;-68
2024/01/12 01:35:41;;;;;;;17.45;9.73;;;;;;;-139.19;100.00;56970.53;5087688;28;20059;-68
2024/01/12 01:38:07;;;;;;;16.08;8.63;;;;;;;-139.19;100.00;56970.53;5079672;28;20375;-68
2024/01/12 01:40:32;;;;;;;21.33;9.60;;;;;;;-139.19;100.00;56970.53;5081632;28;20058;-68
2024/01/12 01:43:07;;;;;;;16.20;9.15;;;;;;;-139.19;100.00;56970.53;5072278;28;20512;-68
2024/01/12 01:45:35;;;;;;;14.98;8.02;;;;;;;-139.19;100.00;56970.53;5085686;28;20039;-68
2024/01/12 01:48:00;;;;;;;16.30;9.13;;;;;;;-139.19;100.00;56970.53;5080476;28;20526;-68
2024/01/12 01:50:26;;;;;;;21.48;10.43;;;;;;;-139.19;100.00;56970.53;5075210;28;20055;-68
2024/01/12 01:52:51;;;;;;;20.20;9.10;;;;;;;-139.19;100.00;56970.53;5081895;28;20043;-68
2024/01/12 01:55:17;;;;;;;25.48;10.05;;;;;;;-139.19;100.00;56970.53;5078267;28;20027;-68
2024/01/12 01:57:45;;;;;;;24.02;9.55;;;;;;;-139.19;100.00;56970.53;5074771;28;20125;-67
2024/01/12 02:00:12;;;;;;;20.83;9.85;;;;;;;-139.19;100.00;56970.53;5076365;28;20020;-68
2024/01/12 02:02:38;;;;;;;19.80;10.52;;;;;;;-139.19;100.00;56970.53;5078134;28;20488;-68
2024/01/12 02:05:06;;;;;;;16.83;9.38;;;;;;;-139.19;100.00;56970.53;5079896;28;20155;-68
2024/01/12 02:07:31;;;;;;;19.88;10.75;;;;;;;-139.19;100.00;56970.53;5080169;28;20020;-67
2024/01/12 02:09:58;;;;;;;22.38;10.30;;;;;;;-139.19;100.00;56970.53;5078050;28;20020;-68
2024/01/12 02:12:23;;;;;;;15.70;8.75;;;;;;;-139.19;100.00;56970.53;5075487;28;20553;-68
2024/01/12 02:14:48;;;;;;;19.92;10.77;;;;;;;-139.19;100.00;56970.53;5071724;28;20036;-68
2024/01/12 02:17:14;;;;;;;15.85;9.18;;;;;;;-139.19;100.00;56970.53;5070598;28;20028;-68
2024/01/12 02:19:39;;;;;;;15.90;8.55;;;;;;;-139.19;100.00;56970.53;5087444;28;20642;-68
2024/01/12 02:22:05;;;;;;;14.65;8.10;;;;;;;-139.19;100.00;56970.53;5080162;28;20031;-67
2024/01/12 02:24:30;;;;;;;21.63;8.32;;;;;;;-139.19;100.00;56970.53;5079348;28;20017;-68
2024/01/12 02:26:55;;;;;;;16.90;8.30;;;;;;;-139.19;100.00;56970.53;5073536;28;20119;-68
2024/01/12 02:29:21;;;;;;;23.50;11.85;;;;;;;-139.19;100.00;56970.53;5080178;28;20066;-68
2024/01/12 02:31:46;;;;;;;28.00;11.68;;;;;;;-139.19;100.00;56970.53;5075937;28;20032;-67
2024/01/12 02:34:14;;;;;;;26.65;11.80;;;;;;;-139.19;100.00;56970.53;5080750;28;20097;-68
2024/01/12 02:36:39;;;;;;;27.27;12.70;;;;;;;-139.19;100.00;56970.53;5076800;28;20036;-68
2024/01/12 02:39:05;;;;;;;25.35;11.07;;;;;;;-139.19;100.00;56970.53;5078543;28;20033;-68
2024/01/12 02:41:30;;;;;;;24.88;12.32;;;;;;;-139.19;100.00;56970.53;5082560;28;20032;-68
2024/01/12 02:43:56;;;;;;;34.65;12.95;;;;;;;-139.19;100.00;56970.53;5081965;28;20066;-68
2024/01/12 02:46:21;;;;;;;19.90;10.02;;;;;;;-139.19;100.00;56970.53;5089869;28;20166;-68
2024/01/12 02:48:47;;;;;;;28.48;11.90;;;;;;;-139.19;100.00;56970.53;5078393;28;20077;-68
2024/01/12 02:51:12;;;;;;;23.48;11.13;;;;;;;-139.19;100.00;56970.53;5086303;28;20027;-68
2024/01/12 02:53:37;;;;;;;27.10;12.77;;;;;;;-139.19;100.00;56970.53;5077153;28;20020;-68
2024/01/12 02:56:03;;;;;;;17.17;10.82;;;;;;;-139.19;100.00;56970.53;5081142;28;20055;-68
2024/01/12 02:58:28;;;;;;;25.33;11.00;;;;;;;-139.19;100.00;56970.53;5082508;28;20028;-68
2024/01/12 03:00:54;;;;;;;24.77;10.82;;;;;;;-139.19;100.00;56970.53;5075967;28;20103;-68
2024/01/12 03:03:20;;;;;;;23.35;10.68;;;;;;;-139.19;100.00;56970.53;5075919;28;20028;-67
2024/01/12 03:05:45;;;;;;;20.10;9.68;;;;;;;-139.19;100.00;56970.53;5075840;28;20024;-68
2024/01/12 03:08:11;;;;;;;21.10;10.13;;;;;;;-139.19;100.00;56970.53;5080716;28;20464;-68
2024/01/12 03:10:37;;;;;;;22.42;11.80;;;;;;;-139.19;100.00;56970.53;5096037;28;20024;-68
2024/01/12 03:13:03;;;;;;;22.63;10.68;;;;;;;-139.19;100.00;56970.53;5095966;28;20499;-68
2024/01/12 03:15:28;;;;;;;24.70;11.70;;;;;;;-139.19;100.00;56970.53;5082453;28;20534;-68
2024/01/12 03:17:56;;;;;;;21.52;10.63;;;;;;;-139.19;100.00;56970.53;5074266;28;20049;-68
2024/01/12 03:20:21;;;;;;;18.90;10.57;;;;;;;-139.19;100.00;56970.53;5075379;28;20104;-67
2024/01/12 03:22:46;;;;;;;18.50;9.82;;;;;;;-139.19;100.00;56970.53;5075338;28;20111;-68
2024/01/12 03:25:13;;;;;;;18.50;9.23;;;;;;;-139.19;100.00;56970.53;5075784;28;20032;-68
2024/01/12 03:27:38;;;;;;;22.92;10.55;;;;;;;-139.19;100.00;56970.53;5083545;28;20035;-68
2024/01/12 03:30:04;;;;;;;24.05;11.27;;;;;;;-139.19;100.00;56970.53;5074080;28;20412;-67
2024/01/12 03:32:30;;;;;;;16.77;8.57;;;;;;;-139.19;100.00;56970.53;5081596;28;20037;-68
2024/01/12 03:34:56;;;;;;;21.45;10.02;;;;;;;-139.19;100.00;56970.53;5074494;28;20025;-68
2024/01/12 03:37:22;;;;;;;15.63;9.88;;;;;;;-139.19;100.00;56970.53;5081567;28;20028;-67
2024/01/12 03:39:47;;;;;;;24.33;10.93;;;;;;;-139.19;100.00;56970.53;5073848;28;20036;-67
2024/01/12 03:42:12;;;;;;;17.23;9.65;;;;;;;-139.19;100.00;56970.53;5074214;28;20477;-68
2024/01/12 03:44:38;;;;;;;16.75;9.75;;;;;;;-139.19;100.00;56970.53;5079441;28;20051;-68
2024/01/12 03:47:03;;;;;;;22.00;9.80;;;;;;;-139.19;100.00;56970.53;5077447;28;20060;-68
2024/01/12 03:49:29;;;;;;;21.20;10.23;;;;;;;-139.19;100.00;56970.53;5088266;28;20032;-68
2024/01/12 03:51:55;;;;;;;15.93;9.32;;;;;;;-139.19;100.00;56970.53;5077212;28;20067;-68
2024/01/12 03:54:21;;;;;;;18.63;8.95;;;;;;;-139.19;100.00;56970.53;5087354;28;20020;-67
2024/01/12 03:56:47;;;;;;;15.80;9.48;;;;;;;-139.19;100.00;56970.53;5086004;28;20037;-68
2024/01/12 03:59:12;;;;;;;17.77;9.38;;;;;;;-139.19;100.00;56970.53;5082267;28;20158;-68
2024/01/12 04:01:45;;;;;;;25.23;11.82;;;;;;;-139.19;100.00;56970.53;5073519;28;20495;-68
2024/01/12 04:04:11;;;;;;;23.27;11.43;;;;;;;-139.19;100.00;56970.53;5089481;28;20024;-68
2024/01/12 04:06:37;;;;;;;21.98;9.65;;;;;;;-139.19;100.00;56970.53;5073671;28;20387;-68
2024/01/12 04:09:02;;;;;;;32.55;11.45;;;;;;;-139.19;100.00;56970.53;5072811;28;20039;-68
2024/01/12 04:11:28;;;;;;;22.50;10.43;;;;;;;-139.19;100.00;56970.53;5081094;28;20039;-68
2024/01/12 04:13:53;;;;;;;25.17;13.43;;;;;;;-139.19;100.00;56970.53;5073200;28;20039;-68
2024/01/12 04:16:20;;;;;;;27.48;12.73;;;;;;;-139.19;100.00;56970.53;5073458;28;20036;-68
2024/01/12 04:18:45;;;;;;;24.63;10.88;;;;;;;-139.19;100.00;56970.53;5079881;28;20044;-68
2024/01/12 04:21:12;;;;;;;25.40;10.60;;;;;;;-139.19;100.00;56970.53;5073128;28;20030;-68
2024/01/12 04:23:39;;;;;;;25.13;12.60;;;;;;;-139.19;100.00;56970.53;5080743;28;20042;-68
2024/01/12 04:26:07;;;;;;;22.58;12.75;;;;;;;-139.19;100.00;56970.53;5093517;28;20028;-67
2024/01/12 04:28:33;;;;;;;21.85;11.00;;;;;;;-139.19;100.00;56970.53;5085020;28;20384;-67
2024/01/12 04:31:01;;;;;;;26.27;11.80;;;;;;;-139.19;100.00;56970.53;5073184;28;20020;-68
2024/01/12 04:33:26;;;;;;;21.00;11.85;;;;;;;-139.19;100.00;56970.53;5086792;28;20491;-68
2024/01/12 04:35:51;;;;;;;30.45;10.00;;;;;;;-139.19;100.00;56970.53;5079768;28;20054;-68
2024/01/12 04:38:17;;;;;;;28.65;10.95;;;;;;;-139.19;100.00;56970.53;5076009;28;20031;-68
2024/01/12 04:40:42;;;;;;;21.20;10.73;;;;;;;-139.19;100.00;56970.53;5072835;28;20527;-68
2024/01/12 04:43:08;;;;;;;20.95;9.90;;;;;;;-139.19;100.00;56970.53;5072905;28;20024;-68
2024/01/12 04:45:33;;;;;;;23.65;11.77;;;;;;;-139.19;100.00;56970.53;5078535;28;20032;-68
2024/01/12 04:47:59;;;;;;;21.50;10.25;;;;;;;-139.19;100.00;56970.53;5081694;28;20048;-68
2024/01/12 04:50:24;;;;;;;24.35;10.15;;;;;;;-139.19;100.00;56970.53;5088460;28;20035;-68
2024/01/12 04:52:51;;;;;;;21.95;11.52;;;;;;;-139.19;100.00;56970.53;5076628;28;20028;-68
2024/01/12 04:55:17;;;;;;;16.83;10.40;;;;;;;-139.19;100.00;56970.53;5077554;28;20456;-67
2024/01/12 04:57:42;;;;;;;19.67;9.88;;;;;;;-139.19;100.00;56970.53;5078319;28;20020;-68
2024/01/12 05:00:08;;;;;;;18.17;9.50;;;;;;;-139.19;100.00;56970.53;5073747;28;20028;-68
2024/01/12 05:02:33;;;;;;;19.92;10.80;;;;;;;-139.19;100.00;56970.53;5073260;28;20028;-68
2024/01/12 05:04:59;;;;;;;17.80;9.93;;;;;;;-139.19;100.00;56970.53;5073356;28;20040;-68
2024/01/12 05:07:24;;;;;;;22.90;9.95;;;;;;;-139.19;100.00;56970.53;5076979;28;20052;-68
2024/01/12 05:09:49;;;;;;;18.17;10.77;;;;;;;-139.19;100.00;56970.53;5093626;28;20109;-68
2024/01/12 05:12:15;;;;;;;20.73;9.77;;;;;;;-139.19;100.00;56970.53;5093855;28;20031;-68
2024/01/12 05:14:41;;;;;;;14.75;8.07;;;;;;;-139.19;100.00;56970.53;5078393;28;20024;-68
2024/01/12 05:17:07;;;;;;;16.98;9.80;;;;;;;-139.19;100.00;56970.53;5073058;28;20036;-68
2024/01/12 05:19:32;;;;;;;17.77;10.43;;;;;;;-139.19;100.00;56970.53;5071963;28;20079;-68
2024/01/12 05:21:58;;;;;;;14.63;8.60;;;;;;;-139.19;100.00;56970.53;5080219;28;20035;-67
2024/01/12 05:24:23;;;;;;;19.00;10.88;;;;;;;-139.19;100.00;56970.53;5082426;28;20028;-67
2024/01/12 05:26:49;;;;;;;15.57;9.52;;;;;;;-139.19;100.00;56970.53;5075476;28;20032;-68
2024/01/12 05:29:15;;;;;;;17.02;9.68;;;;;;;-139.19;100.00;56970.53;5072833;28;20100;-68
2024/01/12 05:31:43;;;;;;;15.80;9.48;;;;;;;-139.19;100.00;56970.53;5079766;28;20392;-68
2024/01/12 05:34:08;;;;;;;24.27;11.02;;;;;;;-139.19;100.00;56970.53;5082243;28;20392;-67
2024/01/12 05:36:34;;;;;;;17.25;9.07;;;;;;;-139.19;100.00;56970.53;5077899;28;20483;-68
2024/01/12 05:39:00;;;;;;;20.92;10.68;;;;;;;-139.19;100.00;56970.53;5072591;28;20119;-70
2024/01/12 05:41:25;;;;;;;19.85;10.80;;;;;;;-139.19;100.00;56970.53;5082159;28;20028;-69
2024/01/12 05:43:51;;;;;;;19.40;10.23;;;;;;;-139.19;100.00;56970.53;5085991;28;20028;-69
2024/01/12 05:46:19;;;;;;;18.52;10.43;;;;;;;-139.19;100.00;56970.53;5093225;28;20118;-69
2024/01/12 05:48:44;;;;;;;19.58;10.23;;;;;;;-139.19;100.00;56970.53;5093488;28;20395;-69
2024/01/12 05:51:12;;;;;;;18.08;10.68;;;;;;;-139.19;100.00;56970.53;5093453;28;20028;-69
2024/01/12 05:53:38;;;;;;;21.05;9.57;;;;;;;-139.19;100.00;56970.53;5093198;28;20024;-69
2024/01/12 05:56:03;;;;;;;15.38;9.45;;;;;;;-139.19;100.00;56970.53;5093102;28;20093;-69
2024/01/12 05:58:29;;;;;;;17.08;9.82;;;;;;;-139.19;100.00;56970.53;5093035;28;20536;-69
2024/01/12 06:01:01;;;;;;;19.77;10.57;;;;;;;-139.19;100.00;56970.53;5093360;28;20031;-70
2024/01/12 06:03:28;;;;;;;17.55;10.30;;;;;;;-139.19;100.00;56970.53;5093086;28;20032;-69
2024/01/12 06:05:57;;;;;;;22.92;10.40;;;;;;;-139.19;100.00;56970.53;5093263;28;20540;-69
2024/01/12 06:08:22;;;;;;;17.83;10.43;;;;;;;-139.19;100.00;56970.53;5093264;28;20455;-69
2024/01/12 06:10:48;;;;;;;20.85;10.85;;;;;;;-139.19;100.00;56970.53;5093215;28;20073;-69
2024/01/12 06:13:13;;;;;;;19.38;10.52;;;;;;;-139.19;100.00;56970.53;5093156;28;20384;-69
2024/01/12 06:15:39;;;;;;;15.80;9.10;;;;;;;-139.19;100.00;56970.53;5094366;28;20020;-69
2024/01/12 06:18:04;;;;;;;20.55;8.88;;;;;;;-139.19;100.00;56970.53;5095592;28;20404;-69
2024/01/12 06:20:30;;;;;;;17.20;10.25;;;;;;;-139.19;100.00;56970.53;5097022;28;20027;-69
2024/01/12 06:22:55;;;;;;;22.00;10.93;;;;;;;-139.19;100.00;56970.53;5096748;28;20027;-69
2024/01/12 06:25:21;;;;;;;17.98;10.05;;;;;;;-139.19;100.00;56970.53;5096922;28;20105;-69
2024/01/12 06:27:46;;;;;;;16.55;10.13;;;;;;;-139.19;100.00;56970.53;5096838;28;20016;-69
2024/01/12 06:30:12;;;;;;;16.00;9.75;;;;;;;-139.19;100.00;56970.53;5096548;28;20035;-69
2024/01/12 06:32:38;;;;;;;19.35;10.10;;;;;;;-139.19;100.00;56970.53;5096574;28;20057;-69
2024/01/12 06:35:04;;;;;;;19.02;11.00;;;;;;;-139.19;100.00;56970.53;5096722;28;20028;-69
2024/01/12 06:37:29;;;;;;;24.33;12.10;;;;;;;-139.19;100.00;56970.53;5096687;28;20418;-69
2024/01/12 06:39:57;;;;;;;22.08;10.98;;;;;;;-139.19;100.00;56970.53;5096315;28;20077;-69
2024/01/12 06:42:23;;;;;;;17.65;9.40;;;;;;;-139.19;100.00;56970.53;5096587;28;20074;-69
2024/01/12 06:44:55;;;;;;;15.77;9.13;;;;;;;-139.19;100.00;56970.53;5096392;28;20418;-69
2024/01/12 06:47:20;;;;;;;18.75;10.32;;;;;;;-139.19;100.00;56970.53;5096393;28;20036;-69
2024/01/12 06:49:46;;;;;;;20.08;10.60;;;;;;;-139.19;100.00;56970.53;5096244;28;20055;-69
2024/01/12 06:52:11;;;;;;;18.73;9.20;;;;;;;-139.19;100.00;56970.53;5096176;28;20027;-69
2024/01/12 06:54:37;;;;;;;14.93;9.13;;;;;;;-139.19;100.00;56970.53;5096374;28;20096;-69
2024/01/12 06:57:03;;;;;;;17.42;8.98;;;;;;;-139.19;100.00;56970.53;5095949;28;20024;-69
2024/01/12 06:59:28;;;;;;;18.80;10.15;;;;;;;-139.19;100.00;56970.53;5096124;28;20480;-69
2024/01/12 07:01:53;;;;;;;15.93;9.25;;;;;;;-139.19;100.00;56970.53;5096012;28;20527;-69
2024/01/12 07:04:19;;;;;;;15.70;9.35;;;;;;;-139.19;100.00;56970.53;5096066;28;20364;-69
2024/01/12 07:06:45;;;;;;;19.33;10.50;;;;;;;-139.19;100.00;56970.53;5096160;28;20024;-69
2024/01/12 07:09:12;;;;;;;20.58;10.38;;;;;;;-139.19;100.00;56970.53;5096096;28;20035;-69
2024/01/12 07:11:43;;;;;;;20.13;10.35;;;;;;;-139.19;100.00;56970.53;5096007;28;20051;-69
2024/01/12 07:14:09;;;;;;;23.35;10.25;;;;;;;-139.19;100.00;56970.53;5095702;28;20073;-69
2024/01/12 07:16:36;;;;;;;21.00;9.98;;;;;;;-139.19;100.00;56970.53;5095639;28;20031;-69
2024/01/12 07:19:01;;;;;;;17.13;10.13;;;;;;;-139.19;100.00;56970.53;5094427;28;20523;-69
2024/01/12 07:21:27;;;;;;;16.70;9.23;;;;;;;-139.19;100.00;56970.53;5095584;28;20111;-69
2024/01/12 07:23:52;;;;;;;22.63;10.55;;;;;;;-139.19;100.00;56970.53;5095637;28;20488;-69
2024/01/12 07:26:17;;;;;;;16.95;10.02;;;;;;;-139.19;100.00;56970.53;5095113;28;20035;-67
2024/01/12 07:28:43;;;;;;;16.25;8.23;;;;;;;-139.19;100.00;56970.53;5095490;28;20024;-67
2024/01/12 07:31:08;;;;;;;17.35;9.35;;;;;;;-139.19;100.00;56970.53;5095554;28;20476;-67
2024/01/12 07:33:33;;;;;;;19.65;10.30;;;;;;;-139.19;100.00;56970.53;5095426;28;20493;-67
2024/01/12 07:35:59;;;;;;;18.88;10.23;;;;;;;-139.19;100.00;56970.53;5095254;28;20039;-67
2024/01/12 07:38:24;;;;;;;16.73;9.45;;;;;;;-139.19;100.00;56970.53;5095213;28;20073;-67
2024/01/12 07:40:49;;;;;;;19.77;12.05;;;;;;;-139.19;100.00;56970.53;5095234;28;20105;-67
2024/01/12 07:43:15;;;;;;;17.05;10.18;;;;;;;-139.19;100.00;56970.53;5095137;28;20491;-67
2024/01/12 07:45:40;;;;;;;17.45;10.25;;;;;;;-139.19;100.00;56970.53;5095407;28;20047;-67
2024/01/12 07:48:07;;;;;;;18.08;9.38;;;;;;;-139.19;100.00;56970.53;5095089;28;20020;-67
2024/01/12 07:50:33;;;;;;;18.35;10.00;;;;;;;-139.19;100.00;56970.53;5095231;28;20552;-67
2024/01/12 07:52:59;;;;;;;21.63;10.95;;;;;;;-139.19;100.00;56970.53;5095015;28;20098;-67
2024/01/12 07:55:24;;;;;;;23.27;9.32;;;;;;;-139.19;100.00;56970.53;5095148;28;20051;-67
2024/01/12 07:57:49;;;;;;;21.92;10.55;;;;;;;-139.19;100.00;56970.53;5095099;28;20032;-67
2024/01/12 08:00:15;;;;;;;18.85;10.48;;;;;;;-139.19;100.00;56970.53;5094812;28;20034;-67
2024/01/12 08:02:40;;;;;;;24.25;10.60;;;;;;;-139.19;100.00;56970.53;5094699;28;20032;-67
2024/01/12 08:05:07;;;;;;;17.67;10.50;;;;;;;-139.19;100.00;56970.53;5094737;28;20035;-67
2024/01/12 08:07:32;;;;;;;17.77;10.77;;;;;;;-139.19;100.00;56970.53;5094965;28;20028;-67
2024/01/12 08:09:58;;;;;;;22.58;11.70;;;;;;;-139.19;100.00;56970.53;5094899;28;20391;-67
2024/01/12 08:12:23;;;;;;;16.20;9.57;;;;;;;-139.19;100.00;56970.53;5094676;28;20051;-67
2024/01/12 08:14:48;;;;;;;12.82;8.23;;;;;;;-139.19;100.00;56970.53;5094604;28;20436;-67
2024/01/12 08:17:14;;;;;;;21.45;8.95;;;;;;;-139.19;100.00;56970.53;5094475;28;20028;-67
2024/01/12 08:19:39;;;;;;;19.40;9.60;;;;;;;-139.19;100.00;56970.53;5093209;28;20056;-67
2024/01/12 08:22:04;;;;;;;20.55;10.15;;;;;;;-139.19;100.00;56970.53;5094666;28;20081;-67
2024/01/12 08:24:30;;;;;;;17.38;9.43;;;;;;;-139.19;100.00;56970.53;5094400;28;20024;-67
2024/01/12 08:26:55;;;;;;;18.05;9.75;;;;;;;-139.19;100.00;56970.53;5094351;28;20027;-67
2024/01/12 08:29:20;;;;;;;15.07;9.35;;;;;;;-139.19;100.00;56970.53;5094309;28;20024;-67
2024/01/12 08:31:46;;;;;;;21.35;10.20;;;;;;;-139.19;100.00;56970.53;5094551;28;20078;-67
2024/01/12 08:34:11;;;;;;;18.75;10.13;;;;;;;-139.19;100.00;56970.53;5094213;28;20058;-67
2024/01/12 08:36:36;;;;;;;18.42;10.02;;;;;;;-139.19;100.00;56970.53;5094192;28;20020;-67
2024/01/12 08:39:02;;;;;;;16.40;8.70;;;;;;;-139.19;100.00;56970.53;5093326;28;20028;-67
2024/01/12 08:41:27;;;;;;;18.73;10.80;;;;;;;-139.19;100.00;56970.53;5094374;28;20034;-67
2024/01/12 08:43:53;;;;;;;18.75;10.15;;;;;;;-139.19;100.00;56970.53;5094034;28;20055;-67
2024/01/12 08:46:20;;;;;;;17.23;9.27;;;;;;;-139.19;100.00;56970.53;5093905;28;20032;-67
2024/01/12 08:48:45;;;;;;;18.88;9.30;;;;;;;-139.19;100.00;56970.53;5093981;28;20027;-67
2024/01/12 08:51:11;;;;;;;19.88;10.43;;;;;;;-139.19;100.00;56970.53;5094178;28;20467;-67
2024/01/12 08:53:36;;;;;;;20.40;11.18;;;;;;;-139.19;100.00;56970.53;5094125;28;20020;-67
2024/01/12 08:56:02;;;;;;;18.90;11.23;;;;;;;-139.19;100.00;56970.53;5093753;28;20028;-67
2024/01/12 08:58:27;;;;;;;20.80;10.80;;;;;;;-139.19;100.00;56970.53;5093993;28;20020;-67
2024/01/12 09:00:53;;;;;;;19.40;10.95;;;;;;;-139.19;100.00;56970.53;5093787;28;20535;-67
2024/01/12 09:03:18;;;;;;;16.55;9.55;;;;;;;-139.19;100.00;56970.53;5093995;28;20031;-68
2024/01/12 09:05:44;;;;;;;21.92;11.38;;;;;;;-139.19;100.00;56970.53;5093670;28;20024;-67
2024/01/12 09:08:09;;;;;;;20.30;9.43;;;;;;;-139.19;100.00;56970.53;5093943;28;20024;-67
2024/01/12 09:10:34;;;;;;;24.67;11.98;;;;;;;-139.19;100.00;56970.53;5093659;28;20070;-67
2024/01/12 09:13:00;;;;;;;25.40;13.82;;;;;;;-139.19;100.00;56970.53;5093595;28;20032;-67
2024/01/12 09:15:25;;;;;;;26.30;10.35;;;;;;;-139.19;100.00;56970.53;5093713;28;20024;-67
2024/01/12 09:17:50;;;;;;;25.77;10.98;;;;;;;-139.19;100.00;56970.53;5093058;28;20365;-67
2024/01/12 09:20:17;;;;;;;25.23;12.32;;;;;;;-139.19;100.00;56970.53;5092777;28;20048;-67
2024/01/12 09:22:42;;;;;;;25.73;13.60;;;;;;;-139.19;100.00;56970.53;5093509;28;20027;-67
2024/01/12 09:25:08;;;;;;;25.23;11.48;;;;;;;-139.19;100.00;56970.53;5093440;28;20020;-67
2024/01/12 09:27:33;;;;;;;22.35;11.70;;;;;;;-139.19;100.00;56970.53;5093416;28;20024;-67
2024/01/12 09:29:58;;;;;;;30.30;12.15;;;;;;;-139.19;100.00;56970.53;5093645;28;20028;-67
2024/01/12 09:32:24;;;;;;;26.00;14.38;;;;;;;-139.19;100.00;56970.53;5093590;28;20024;-67
2024/01/12 09:34:49;;;;;;;21.90;11.13;;;;;;;-139.19;100.00;56970.53;5093378;28;20444;-67
2024/01/12 09:37:14;;;;;;;20.80;11.55;;;;;;;-139.19;100.00;56970.53;5093285;28;20064;-67
2024/01/12 09:39:40;;;;;;;24.50;10.95;;;;;;;-139.19;100.00;56970.53;5093364;28;20093;-67
2024/01/12 09:42:08;;;;;;;19.77;9.98;;;;;;;-139.19;100.00;56970.53;5093254;28;20097;-68
2024/01/12 09:44:37;;;;;;;27.63;11.50;;;;;;;-139.19;100.00;56970.53;5093251;28;20024;-67
2024/01/12 09:47:03;;;;;;;25.58;12.85;;;;;;;-139.19;100.00;56970.53;5093364;28;20028;-68
2024/01/12 09:49:30;;;;;;;16.70;9.63;;;;;;;-139.19;100.00;56970.53;5094177;28;20077;-69
2024/01/12 09:51:57;;;;;;;20.23;9.95;;;;;;;-139.19;100.00;56970.53;5097410;28;20391;-69
2024/01/12 09:54:23;;;;;;;24.30;11.27;;;;;;;-139.19;100.00;56970.53;5097345;28;20027;-68
2024/01/12 09:56:48;;;;;;;21.05;11.43;;;;;;;-139.19;100.00;56970.53;5097139;28;20472;-68
2024/01/12 09:59:16;;;;;;;24.02;10.80;;;;;;;-139.19;100.00;56970.53;5097162;28;20029;-68
2024/01/12 10:01:42;;;;;;;22.90;12.13;;;;;;;-139.19;100.00;56970.53;5097182;28;20049;-68
2024/01/12 10:04:08;;;;;;;25.98;11.15;;;;;;;-139.19;100.00;56970.53;5097126;28;20089;-68
2024/01/12 10:06:35;;;;;;;18.63;10.38;;;;;;;-139.19;100.00;56970.53;5097294;28;20033;-68
2024/01/12 10:09:00;;;;;;;24.13;12.43;;;;;;;-139.19;100.00;56970.53;5096985;28;20035;-68
2024/01/12 10:11:26;;;;;;;21.98;10.15;;;;;;;-139.19;100.00;56970.53;5097202;28;20020;-69
2024/01/12 10:13:52;;;;;;;25.52;13.38;;;;;;;-139.19;100.00;56970.53;5096828;28;20024;-69
2024/01/12 10:16:17;;;;;;;21.48;11.45;;;;;;;-139.19;100.00;56970.53;5096859;28;20020;-68
2024/01/12 10:18:42;;;;;;;21.25;11.02;;;;;;;-139.19;100.00;56970.53;5095447;28;20173;-69
2024/01/12 10:21:08;;;;;;;21.33;10.57;;;;;;;-139.19;100.00;56970.53;5096810;28;20383;-69
2024/01/12 10:23:34;;;;;;;22.65;10.77;;;;;;;-139.19;100.00;56970.53;5096719;28;20016;-69
2024/01/12 10:26:03;;;;;;;23.73;10.55;;;;;;;-139.19;100.00;56970.53;5096680;28;20047;-68
2024/01/12 10:28:30;;;;;;;22.23;10.73;;;;;;;-139.19;100.00;56970.53;5096900;28;20463;-69
2024/01/12 10:30:55;;;;;;;20.20;10.68;;;;;;;-139.19;100.00;56970.53;5096860;28;20475;-68
2024/01/12 10:33:22;;;;;;;26.05;11.90;;;;;;;-139.19;100.00;56970.53;5096517;28;20020;-68
2024/01/12 10:35:55;;;;;;;24.15;11.75;;;;;;;-139.19;100.00;56970.53;5096788;28;20488;-68
2024/01/12 10:38:21;;;;;;;18.55;10.30;;;;;;;-139.19;100.00;56970.53;5096417;28;20502;-68
2024/01/12 10:40:47;;;;;;;25.83;11.32;;;;;;;-139.19;100.00;56970.53;5096353;28;20032;-68
2024/01/12 10:43:17;;;;;;;21.42;10.35;;;;;;;-139.19;100.00;56970.53;5096361;28;20034;-68
2024/01/12 10:45:47;;;;;;;21.27;11.18;;;;;;;-139.19;100.00;56970.53;5096247;28;20020;-68
2024/01/12 10:48:19;;;;;;;23.98;11.23;;;;;;;-139.19;100.00;56970.53;5096567;28;20051;-68
2024/01/12 10:50:48;;;;;;;24.08;11.50;;;;;;;-139.19;100.00;56970.53;5096220;28;20020;-69